createdAt,value
2019-04-19T00:01:15.681Z,10.34
2019-04-19T00:04:24.605Z,10.94
2019-04-19T00:07:32.096Z,11.45
2019-04-19T00:10:48.393Z,11.49
2019-04-19T00:13:47.366Z,11.38
2019-04-19T00:16:55.387Z,11.28
2019-04-19T00:20:25.564Z,11.29
2019-04-19T00:23:21.413Z,11.13
2019-04-19T00:26:19.282Z,11.09
2019-04-19T00:29:37.925Z,10.99
2019-04-19T00:32:48.069Z,11.02
2019-04-19T00:35:43.318Z,11.23
2019-04-19T00:39:04.407Z,11.23
2019-04-19T00:42:35.431Z,11.20
2019-04-19T00:45:57.245Z,11.11
2019-04-19T00:48:59.627Z,11.11
2019-04-19T00:52:08.885Z,11.00
2019-04-19T00:55:10.293Z,10.98
2019-04-19T00:58:16.318Z,10.76
2019-04-19T01:01:21.505Z,10.61
2019-04-19T01:04:28.078Z,10.44
2019-04-19T01:07:36.365Z,10.50
2019-04-19T01:10:59.133Z,10.44
2019-04-19T01:14:07.234Z,10.39
2019-04-19T01:17:15.196Z,10.38
2019-04-19T01:20:11.847Z,10.24
2019-04-19T01:23:18.242Z,10.22
2019-04-19T01:26:25.623Z,10.34
2019-04-19T01:29:38.276Z,10.35
2019-04-19T01:32:43.276Z,10.43
2019-04-19T01:35:51.601Z,10.22
2019-04-19T01:39:14.525Z,10.20
2019-04-19T01:42:26.473Z,10.08
2019-04-19T01:45:46.043Z,10.13
2019-04-19T01:49:05.645Z,10.26
2019-04-19T01:52:30.862Z,10.20
2019-04-19T01:55:23.803Z,10.20
2019-04-19T01:58:24.404Z,10.28
2019-04-19T02:01:33.320Z,10.31
2019-04-19T02:04:39.657Z,10.17
2019-04-19T02:07:49.779Z,10.09
2019-04-19T02:11:48.368Z,10.11
2019-04-19T02:14:53.876Z,9.91
2019-04-19T02:17:54.337Z,9.95
2019-04-19T02:21:02.349Z,9.92
2019-04-19T02:24:08.921Z,9.88
2019-04-19T02:27:17.902Z,9.68
2019-04-19T02:30:35.409Z,9.59
2019-04-19T02:34:09.101Z,9.13
2019-04-19T02:37:08.329Z,8.48
2019-04-19T02:40:35.072Z,8.02
2019-04-19T02:43:33.683Z,8.57
2019-04-19T02:46:44.434Z,7.91
2019-04-19T02:53:02.312Z,7.96
2019-04-19T02:56:04.013Z,6.92
2019-04-19T02:59:25.915Z,7.49
2019-04-19T03:02:38.286Z,7.31
2019-04-19T03:08:14.920Z,7.46
2019-04-19T03:11:35.430Z,7.44
2019-04-19T03:14:46.503Z,7.78
2019-04-19T03:17:58.607Z,6.96
2019-04-19T03:20:59.328Z,7.46
2019-04-19T03:24:12.394Z,7.58
2019-04-19T03:27:13.643Z,6.84
2019-04-19T03:30:37.933Z,7.36
2019-04-19T03:36:47.889Z,7.20
2019-04-19T03:40:08.518Z,7.03
2019-04-19T03:43:31.463Z,6.97
2019-04-19T03:46:40.729Z,7.40
2019-04-19T03:49:45.180Z,7.20
2019-04-19T03:52:48.798Z,7.39
2019-04-19T03:56:06.485Z,7.38
2019-04-19T03:58:49.229Z,7.03
2019-04-19T04:01:59.229Z,7.35
2019-04-19T04:05:09.703Z,7.00
2019-04-19T04:08:21.414Z,6.81
2019-04-19T04:11:51.067Z,7.22
2019-04-19T04:15:04.690Z,7.22
2019-04-19T04:18:02.729Z,6.99
2019-04-19T04:21:09.553Z,7.14
2019-04-19T04:24:22.409Z,7.06
2019-04-19T04:27:38.944Z,7.06
2019-04-19T04:30:43.576Z,7.16
2019-04-19T04:33:52.447Z,7.43
2019-04-19T04:37:01.770Z,6.81
2019-04-19T04:39:59.831Z,7.51
2019-04-19T04:43:22.954Z,7.18
2019-04-19T04:46:46.605Z,6.81
2019-04-19T04:50:14.312Z,7.11
2019-04-19T04:53:10.946Z,7.24
2019-04-19T04:56:21.597Z,7.19
2019-04-19T04:59:28.858Z,7.63
2019-04-19T05:02:51.582Z,7.50
2019-04-19T05:06:09.369Z,7.81
2019-04-19T05:09:15.812Z,8.03
2019-04-19T05:12:27.090Z,8.31
2019-04-19T05:15:26.591Z,8.30
2019-04-19T05:18:34.821Z,8.41
2019-04-19T05:21:42.644Z,8.52
2019-04-19T05:24:56.475Z,8.75
2019-04-19T05:28:00.981Z,8.83
2019-04-19T05:30:57.320Z,8.96
2019-04-19T05:37:25.107Z,9.17
2019-04-19T05:40:38.867Z,9.39
2019-04-19T05:44:21.379Z,9.54
2019-04-19T05:47:20.739Z,9.75
2019-04-19T05:50:30.374Z,9.93
2019-04-19T05:53:29.879Z,10.13
2019-04-19T05:56:24.800Z,10.27
2019-04-19T05:59:42.404Z,10.52
2019-04-19T06:02:53.383Z,10.78
2019-04-19T06:06:15.994Z,10.99
2019-04-19T06:08:56.202Z,11.18
2019-04-19T06:12:09.558Z,11.31
2019-04-19T06:15:40.604Z,11.34
2019-04-19T06:18:38.963Z,11.50
2019-04-19T06:21:52.345Z,11.74
2019-04-19T06:25:01.016Z,11.65
2019-04-19T06:28:21.142Z,12.14
2019-04-19T06:31:21.730Z,12.37
2019-04-19T06:34:29.150Z,12.54
2019-04-19T06:37:21.494Z,12.54
2019-04-19T06:40:30.029Z,12.72
2019-04-19T06:43:47.543Z,12.72
2019-04-19T06:47:12.595Z,12.79
2019-04-19T06:50:09.262Z,12.90
2019-04-19T06:53:16.819Z,13.07
2019-04-19T06:56:30.284Z,13.22
2019-04-19T06:59:47.808Z,13.61
2019-04-19T07:02:41.211Z,13.56
2019-04-19T07:06:06.388Z,13.73
2019-04-19T07:09:22.097Z,13.89
2019-04-19T07:12:24.591Z,14.16
2019-04-19T07:18:36.059Z,14.78
2019-04-19T07:21:46.869Z,14.71
2019-04-19T07:25:05.010Z,14.94
2019-04-19T07:27:55.620Z,15.21
2019-04-19T07:30:59.071Z,15.18
2019-04-19T07:34:16.492Z,15.48
2019-04-19T07:37:28.084Z,15.68
2019-04-19T07:40:42.959Z,15.89
2019-04-19T07:44:06.939Z,15.91
2019-04-19T07:47:29.585Z,15.94
2019-04-19T07:50:39.255Z,16.22
2019-04-19T07:53:42.368Z,16.27
2019-04-19T07:57:00.493Z,16.31
2019-04-19T08:00:19.060Z,16.61
2019-04-19T08:03:38.288Z,16.84
2019-04-19T08:09:43.765Z,16.77
2019-04-19T08:12:54.157Z,16.86
2019-04-19T08:15:59.658Z,17.02
2019-04-19T08:28:21.946Z,17.51
2019-04-19T08:31:16.433Z,17.28
2019-04-19T08:34:24.970Z,17.36
2019-04-19T08:37:36.444Z,17.28
2019-04-19T08:40:57.225Z,17.71
2019-04-19T08:44:05.128Z,17.58
2019-04-19T08:47:17.480Z,17.73
2019-04-19T08:50:18.453Z,18.01
2019-04-19T08:53:41.794Z,18.05
2019-04-19T08:56:43.022Z,18.05
2019-04-19T09:00:05.688Z,18.25
2019-04-19T09:03:02.913Z,18.19
2019-04-19T09:06:56.538Z,18.32
2019-04-19T09:09:32.724Z,17.95
2019-04-19T09:12:31.256Z,18.23
2019-04-19T09:15:40.992Z,18.40
2019-04-19T09:18:59.562Z,18.48
2019-04-19T09:21:54.386Z,18.34
2019-04-19T09:24:57.725Z,18.35
2019-04-19T09:28:25.067Z,18.60
2019-04-19T09:31:22.706Z,18.58
2019-04-19T09:34:19.532Z,18.76
2019-04-19T09:37:40.406Z,18.94
2019-04-19T09:40:39.313Z,19.02
2019-04-19T09:43:52.220Z,19.13
2019-04-19T09:46:47.109Z,19.58
2019-04-19T09:50:09.157Z,19.46
2019-04-19T09:53:32.754Z,19.54
2019-04-19T09:56:27.618Z,19.51
2019-04-19T09:59:27.188Z,19.56
2019-04-19T10:02:31.883Z,19.45
2019-04-19T10:05:34.968Z,19.83
2019-04-19T10:08:42.105Z,19.51
2019-04-19T10:11:48.878Z,19.74
2019-04-19T10:14:55.695Z,20.07
2019-04-19T10:18:02.768Z,19.94
2019-04-19T10:21:26.384Z,19.82
2019-04-19T10:24:29.510Z,19.84
2019-04-19T10:27:36.104Z,19.99
2019-04-19T10:30:53.138Z,19.93
2019-04-19T10:34:02.929Z,19.94
2019-04-19T10:37:08.095Z,20.01
2019-04-19T10:40:15.583Z,20.41
2019-04-19T10:43:23.180Z,20.32
2019-04-19T10:46:30.805Z,20.41
2019-04-19T10:49:45.845Z,20.29
2019-04-19T10:52:46.070Z,20.34
2019-04-19T10:55:58.895Z,20.27
2019-04-19T10:59:05.290Z,20.78
2019-04-19T11:02:11.763Z,20.76
2019-04-19T11:05:20.673Z,20.63
2019-04-19T11:08:28.640Z,20.74
2019-04-19T11:11:37.289Z,20.61
2019-04-19T11:14:44.095Z,20.64
2019-04-19T11:17:53.785Z,20.44
2019-04-19T11:21:01.007Z,20.80
2019-04-19T11:24:09.628Z,20.52
2019-04-19T11:27:17.103Z,20.81
2019-04-19T11:30:55.127Z,21.12
2019-04-19T11:34:01.792Z,20.85
2019-04-19T11:37:10.715Z,20.72
2019-04-19T11:40:17.367Z,20.71
2019-04-19T11:43:25.128Z,21.17
2019-04-19T11:46:31.952Z,20.75
2019-04-19T11:49:41.966Z,21.21
2019-04-19T11:53:06.198Z,21.02
2019-04-19T11:56:54.198Z,21.42
2019-04-19T12:00:15.582Z,21.02
2019-04-19T12:03:25.631Z,21.40
2019-04-19T12:06:34.315Z,21.66
2019-04-19T12:09:40.758Z,21.46
2019-04-19T12:12:47.243Z,21.47
2019-04-19T12:15:56.902Z,21.43
2019-04-19T12:19:04.352Z,20.57
2019-04-19T12:22:10.805Z,21.70
2019-04-19T12:25:17.828Z,21.29
2019-04-19T12:28:25.907Z,21.37
2019-04-19T12:31:33.627Z,21.61
2019-04-19T12:34:40.428Z,21.60
2019-04-19T12:37:47.508Z,21.72
2019-04-19T12:40:58.358Z,21.86
2019-04-19T12:44:04.997Z,21.91
2019-04-19T12:47:11.141Z,21.75
2019-04-19T12:50:17.970Z,22.04
2019-04-19T12:53:25.281Z,22.35
2019-04-19T12:56:31.863Z,22.02
2019-04-19T12:59:38.134Z,22.37
2019-04-19T13:02:49.891Z,21.75
2019-04-19T13:05:56.062Z,22.01
2019-04-19T13:09:03.322Z,22.51
2019-04-19T13:12:11.072Z,22.08
2019-04-19T13:15:17.730Z,21.72
2019-04-19T13:18:24.429Z,21.46
2019-04-19T13:21:32.309Z,22.39
2019-04-19T13:24:40.535Z,22.45
2019-04-19T13:27:54.377Z,22.21
2019-04-19T13:30:59.767Z,22.13
2019-04-19T13:34:07.211Z,22.03
2019-04-19T13:37:47.712Z,22.20
2019-04-19T13:41:14.791Z,21.88
2019-04-19T13:44:20.948Z,21.71
2019-04-19T13:47:28.770Z,21.77
2019-04-19T13:50:47.590Z,21.69
2019-04-19T13:53:54.540Z,22.22
2019-04-19T13:57:01.728Z,22.52
2019-04-19T14:00:14.139Z,22.55
2019-04-19T14:03:21.425Z,22.38
2019-04-19T14:06:28.594Z,22.05
2019-04-19T14:09:35.175Z,22.80
2019-04-19T14:12:42.970Z,21.55
2019-04-19T14:15:51.099Z,22.67
2019-04-19T14:18:58.408Z,23.43
2019-04-19T14:22:05.046Z,22.49
2019-04-19T14:25:11.706Z,22.87
2019-04-19T14:28:18.872Z,23.00
2019-04-19T14:31:28.319Z,22.99
2019-04-19T14:34:35.315Z,22.87
2019-04-19T14:37:43.753Z,22.93
2019-04-19T14:40:51.350Z,23.41
2019-04-19T14:43:57.832Z,22.84
2019-04-19T14:47:05.096Z,22.53
2019-04-19T14:50:13.164Z,22.53
2019-04-19T14:53:20.214Z,22.85
2019-04-19T14:56:26.476Z,22.44
2019-04-19T14:59:33.205Z,22.93
2019-04-19T15:02:48.520Z,22.60
2019-04-19T15:05:57.441Z,22.18
2019-04-19T15:09:05.756Z,22.18
2019-04-19T15:12:13.050Z,22.65
2019-04-19T15:15:19.778Z,22.54
2019-04-19T15:18:26.137Z,22.11
2019-04-19T15:21:32.399Z,22.56
2019-04-19T15:24:38.904Z,22.12
2019-04-19T15:27:45.120Z,21.98
2019-04-19T15:30:52.499Z,22.39
2019-04-19T15:33:59.088Z,21.93
2019-04-19T15:37:05.362Z,21.97
2019-04-19T15:40:14.046Z,21.52
2019-04-19T15:43:21.300Z,22.06
2019-04-19T15:46:29.461Z,21.66
2019-04-19T15:49:36.012Z,21.72
2019-04-19T15:52:42.308Z,21.52
2019-04-19T15:55:51.184Z,21.48
2019-04-19T15:59:03.031Z,21.69
2019-04-19T16:02:26.230Z,21.67
2019-04-19T16:06:00.378Z,21.85
2019-04-19T16:09:39.709Z,21.73
2019-04-19T16:12:47.771Z,21.52
2019-04-19T16:15:54.241Z,21.28
2019-04-19T16:19:00.535Z,21.28
2019-04-19T16:22:09.528Z,21.12
2019-04-19T16:25:17.029Z,21.26
2019-04-19T16:28:23.496Z,21.01
2019-04-19T16:31:30.604Z,21.14
2019-04-19T16:34:38.721Z,20.96
2019-04-19T16:37:45.285Z,20.89
2019-04-19T16:40:52.586Z,20.82
2019-04-19T16:43:59.838Z,20.64
2019-04-19T16:47:06.447Z,20.48
2019-04-19T16:50:14.551Z,20.24
2019-04-19T16:53:21.913Z,20.34
2019-04-19T16:56:29.950Z,20.09
2019-04-19T16:59:40.107Z,19.99
2019-04-19T17:02:47.332Z,20.00
2019-04-19T17:05:55.453Z,19.96
2019-04-19T17:09:02.592Z,19.82
2019-04-19T17:12:10.675Z,19.53
2019-04-19T17:15:34.815Z,19.32
2019-04-19T17:18:57.303Z,19.10
2019-04-19T17:22:11.423Z,19.20
2019-04-19T17:25:13.250Z,19.06
2019-04-19T17:28:21.016Z,18.96
2019-04-19T17:31:27.687Z,18.99
2019-04-19T17:34:36.196Z,18.93
2019-04-19T17:37:44.516Z,18.76
2019-04-19T17:40:52.788Z,18.72
2019-04-19T17:43:59.512Z,18.60
2019-04-19T17:47:06.920Z,18.47
2019-04-19T17:50:16.583Z,18.05
2019-04-19T17:53:25.840Z,18.08
2019-04-19T17:56:31.290Z,17.95
2019-04-19T17:59:38.338Z,17.92
2019-04-19T18:02:46.858Z,17.71
2019-04-19T18:05:54.058Z,17.76
2019-04-19T18:09:08.030Z,17.71
2019-04-19T18:12:11.459Z,17.47
2019-04-19T18:15:19.578Z,17.42
2019-04-19T18:18:30.709Z,17.38
2019-04-19T18:21:37.571Z,17.38
2019-04-19T18:24:47.721Z,17.31
2019-04-19T18:27:53.821Z,17.17
2019-04-19T18:31:00.767Z,16.81
2019-04-19T18:34:12.802Z,16.70
2019-04-19T18:37:18.607Z,16.61
2019-04-19T18:40:27.017Z,16.43
2019-04-19T18:43:40.741Z,16.17
2019-04-19T18:46:41.281Z,16.24
2019-04-19T18:49:49.861Z,16.33
2019-04-19T18:53:07.581Z,16.23
2019-04-19T18:56:13.316Z,15.92
2019-04-19T18:59:20.260Z,16.00
2019-04-19T19:02:26.339Z,15.77
2019-04-19T19:05:35.831Z,15.70
2019-04-19T19:08:45.771Z,15.57
2019-04-19T19:11:59.067Z,15.86
2019-04-19T19:15:02.279Z,15.90
2019-04-19T19:18:08.296Z,15.80
2019-04-19T19:21:16.230Z,15.53
2019-04-19T19:24:47.833Z,15.52
2019-04-19T19:27:33.743Z,15.55
2019-04-19T19:30:40.596Z,15.31
2019-04-19T19:33:50.084Z,15.51
2019-04-19T19:36:58.743Z,15.31
2019-04-19T19:40:15.572Z,15.24
2019-04-19T19:43:36.636Z,15.22
2019-04-19T19:46:47.581Z,15.12
2019-04-19T19:49:53.590Z,15.10
2019-04-19T19:52:59.638Z,14.73
2019-04-19T19:56:29.047Z,14.08
2019-04-19T19:59:07.785Z,13.68
2019-04-19T20:02:20.998Z,13.65
2019-04-19T20:05:22.225Z,13.16
2019-04-19T20:08:32.135Z,12.77
2019-04-19T20:11:34.748Z,12.47
2019-04-19T20:14:40.779Z,12.50
2019-04-19T20:17:54.478Z,12.28
2019-04-19T20:20:56.648Z,12.16
2019-04-19T20:24:14.108Z,12.77
2019-04-19T20:27:18.690Z,12.68
2019-04-19T20:30:19.747Z,12.52
2019-04-19T20:33:33.431Z,12.28
2019-04-19T20:36:38.861Z,12.26
2019-04-19T20:39:48.258Z,12.29
2019-04-19T20:43:14.730Z,11.64
2019-04-19T20:46:11.866Z,11.91
2019-04-19T20:49:11.811Z,11.92
2019-04-19T20:52:40.410Z,11.94
2019-04-19T20:55:55.362Z,11.59
2019-04-19T20:58:49.000Z,11.40
2019-04-19T21:01:50.738Z,11.34
2019-04-19T21:05:01.022Z,11.35
2019-04-19T21:08:10.713Z,11.06
2019-04-19T21:11:15.025Z,11.65
2019-04-19T21:14:27.293Z,11.94
2019-04-19T21:17:33.801Z,11.88
2019-04-19T21:20:40.471Z,11.62
2019-04-19T21:23:56.912Z,11.56
2019-04-19T21:27:02.002Z,11.60
2019-04-19T21:30:08.185Z,11.48
2019-04-19T21:33:15.960Z,11.24
2019-04-19T21:36:22.093Z,10.84
2019-04-19T21:39:39.148Z,11.00
2019-04-19T21:42:46.684Z,10.93
2019-04-19T21:45:51.308Z,10.80
2019-04-19T21:48:55.439Z,9.30
2019-04-19T21:52:13.985Z,9.64
2019-04-19T21:55:25.396Z,10.36
2019-04-19T21:58:24.933Z,10.63
2019-04-19T22:01:34.802Z,10.48
2019-04-19T22:04:45.942Z,10.08
2019-04-19T22:07:49.562Z,10.18
2019-04-19T22:10:56.475Z,10.39
2019-04-19T22:14:04.430Z,10.70
2019-04-19T22:17:16.858Z,10.52
2019-04-19T22:20:22.725Z,10.69
2019-04-19T22:23:28.666Z,10.28
2019-04-19T22:26:41.627Z,10.18
2019-04-19T22:29:45.273Z,10.46
2019-04-19T22:32:55.440Z,10.16
2019-04-19T22:36:01.385Z,10.01
2019-04-19T22:39:09.678Z,10.33
2019-04-19T22:42:19.160Z,10.47
2019-04-19T22:45:26.974Z,9.81
2019-04-19T22:48:33.729Z,10.43
2019-04-19T22:51:43.166Z,10.00
2019-04-19T22:54:50.775Z,9.97
2019-04-19T22:58:00.716Z,9.86
2019-04-19T23:01:15.790Z,9.88
2019-04-19T23:04:23.545Z,9.76
2019-04-19T23:07:28.232Z,10.18
2019-04-19T23:10:45.152Z,9.98
2019-04-19T23:13:45.388Z,9.91
2019-04-19T23:16:55.365Z,9.85
2019-04-19T23:20:01.129Z,9.92
2019-04-19T23:23:14.760Z,9.86
2019-04-19T23:26:28.196Z,9.83
2019-04-19T23:29:28.419Z,9.46
2019-04-19T23:32:36.239Z,9.52
2019-04-19T23:35:42.265Z,9.17
2019-04-19T23:38:52.132Z,9.41
2019-04-19T23:41:57.734Z,9.38
2019-04-19T23:45:04.251Z,9.64
2019-04-19T23:48:12.916Z,8.82
2019-04-19T23:51:19.007Z,8.72
2019-04-19T23:54:29.555Z,8.75
2019-04-19T23:57:39.452Z,8.86
